sensor_id;sensor_type;location;lat;lon;timestamp;temperature;humidity
3818;DHT22;1924;48.078;11.516;2023-02-28T00:02:26;-1.90;99.90
3818;DHT22;1924;48.078;11.516;2023-02-28T00:04:52;-1.90;99.90
3818;DHT22;1924;48.078;11.516;2023-02-28T00:07:26;-2.10;99.90
3818;DHT22;1924;48.078;11.516;2023-02-28T00:09:53;-2.10;99.90
3818;DHT22;1924;48.078;11.516;2023-02-28T00:12:19;-2.10;99.90
3818;DHT22;1924;48.078;11.516;2023-02-28T00:14:48;-2.30;99.90
3818;DHT22;1924;48.078;11.516;2023-02-28T00:17:14;-2.30;99.90
3818;DHT22;1924;48.078;11.516;2023-02-28T00:19:43;-2.30;99.90
3818;DHT22;1924;48.078;11.516;2023-02-28T00:22:10;-2.30;99.90
3818;DHT22;1924;48.078;11.516;2023-02-28T00:24:37;-2.40;99.90
3818;DHT22;1924;48.078;11.516;2023-02-28T00:27:03;-2.40;99.90
3818;DHT22;1924;48.078;11.516;2023-02-28T00:29:30;-2.30;99.90
3818;DHT22;1924;48.078;11.516;2023-02-28T00:31:58;-2.30;99.90
3818;DHT22;1924;48.078;11.516;2023-02-28T00:34:25;-2.10;99.90
3818;DHT22;1924;48.078;11.516;2023-02-28T00:36:51;-2.00;99.90
3818;DHT22;1924;48.078;11.516;2023-02-28T00:39:18;-2.30;99.90
3818;DHT22;1924;48.078;11.516;2023-02-28T00:41:45;-2.30;99.90
3818;DHT22;1924;48.078;11.516;2023-02-28T00:44:11;-2.40;99.90
3818;DHT22;1924;48.078;11.516;2023-02-28T00:46:38;-2.30;99.90
3818;DHT22;1924;48.078;11.516;2023-02-28T00:49:06;-2.30;99.90
3818;DHT22;1924;48.078;11.516;2023-02-28T00:51:33;-2.30;99.90
3818;DHT22;1924;48.078;11.516;2023-02-28T00:54:00;-2.20;99.90
3818;DHT22;1924;48.078;11.516;2023-02-28T00:56:26;-2.30;99.90
3818;DHT22;1924;48.078;11.516;2023-02-28T00:58:53;-2.30;99.90
3818;DHT22;1924;48.078;11.516;2023-02-28T01:01:20;-2.20;99.90
3818;DHT22;1924;48.078;11.516;2023-02-28T01:03:46;-2.30;99.90
3818;DHT22;1924;48.078;11.516;2023-02-28T01:06:14;-2.30;99.90
3818;DHT22;1924;48.078;11.516;2023-02-28T01:08:41;-2.40;99.90
3818;DHT22;1924;48.078;11.516;2023-02-28T01:11:10;-2.30;99.90
3818;DHT22;1924;48.078;11.516;2023-02-28T01:13:37;-2.30;99.90
3818;DHT22;1924;48.078;11.516;2023-02-28T01:16:04;-2.40;99.90
3818;DHT22;1924;48.078;11.516;2023-02-28T01:18:31;-2.40;99.90
3818;DHT22;1924;48.078;11.516;2023-02-28T01:20:58;-2.40;99.90
3818;DHT22;1924;48.078;11.516;2023-02-28T01:23:26;-2.30;99.90
3818;DHT22;1924;48.078;11.516;2023-02-28T01:25:52;-2.30;99.90
3818;DHT22;1924;48.078;11.516;2023-02-28T01:28:19;-2.30;99.90
3818;DHT22;1924;48.078;11.516;2023-02-28T01:30:48;-2.30;99.90
3818;DHT22;1924;48.078;11.516;2023-02-28T01:33:15;-2.50;99.90
3818;DHT22;1924;48.078;11.516;2023-02-28T01:35:42;-2.50;99.90
3818;DHT22;1924;48.078;11.516;2023-02-28T01:38:08;-2.40;99.90
3818;DHT22;1924;48.078;11.516;2023-02-28T01:40:36;-2.30;99.90
3818;DHT22;1924;48.078;11.516;2023-02-28T01:43:07;-2.40;99.90
3818;DHT22;1924;48.078;11.516;2023-02-28T01:45:43;-2.60;99.90
3818;DHT22;1924;48.078;11.516;2023-02-28T01:48:09;-2.60;99.90
3818;DHT22;1924;48.078;11.516;2023-02-28T01:50:41;-2.50;99.90
3818;DHT22;1924;48.078;11.516;2023-02-28T01:53:12;-2.70;99.90
3818;DHT22;1924;48.078;11.516;2023-02-28T01:55:42;-2.70;99.90
3818;DHT22;1924;48.078;11.516;2023-02-28T01:58:11;-2.70;99.90
3818;DHT22;1924;48.078;11.516;2023-02-28T02:00:38;-2.60;99.90
3818;DHT22;1924;48.078;11.516;2023-02-28T02:03:09;-2.70;99.90
3818;DHT22;1924;48.078;11.516;2023-02-28T02:05:38;-2.60;99.90
3818;DHT22;1924;48.078;11.516;2023-02-28T02:08:08;-2.50;99.90
3818;DHT22;1924;48.078;11.516;2023-02-28T02:10:39;-2.80;99.90
3818;DHT22;1924;48.078;11.516;2023-02-28T02:13:37;-2.80;99.90
3818;DHT22;1924;48.078;11.516;2023-02-28T02:16:13;-2.70;99.90
3818;DHT22;1924;48.078;11.516;2023-02-28T02:18:45;-2.50;99.90
3818;DHT22;1924;48.078;11.516;2023-02-28T02:24:39;-2.40;99.90
3818;DHT22;1924;48.078;11.516;2023-02-28T02:27:33;-2.50;99.90
3818;DHT22;1924;48.078;11.516;2023-02-28T02:30:20;-2.50;99.90
3818;DHT22;1924;48.078;11.516;2023-02-28T02:33:22;-2.50;99.90
3818;DHT22;1924;48.078;11.516;2023-02-28T02:36:01;-2.60;99.90
3818;DHT22;1924;48.078;11.516;2023-02-28T02:38:34;-2.80;99.90
3818;DHT22;1924;48.078;11.516;2023-02-28T02:41:08;-2.80;99.90
3818;DHT22;1924;48.078;11.516;2023-02-28T02:43:42;-2.70;99.90
3818;DHT22;1924;48.078;11.516;2023-02-28T02:46:15;-2.50;99.90
3818;DHT22;1924;48.078;11.516;2023-02-28T02:48:44;-2.70;99.90
3818;DHT22;1924;48.078;11.516;2023-02-28T02:51:15;-2.70;99.90
3818;DHT22;1924;48.078;11.516;2023-02-28T02:53:47;-2.60;99.90
3818;DHT22;1924;48.078;11.516;2023-02-28T02:56:18;-2.70;99.90
3818;DHT22;1924;48.078;11.516;2023-02-28T02:58:47;-2.80;99.90
3818;DHT22;1924;48.078;11.516;2023-02-28T03:01:18;-2.90;99.90
3818;DHT22;1924;48.078;11.516;2023-02-28T03:03:55;-2.90;99.90
3818;DHT22;1924;48.078;11.516;2023-02-28T05:02:21;-2.90;99.90
3818;DHT22;1924;48.078;11.516;2023-02-28T05:04:49;-3.00;99.90
3818;DHT22;1924;48.078;11.516;2023-02-28T05:07:15;-3.00;99.90
3818;DHT22;1924;48.078;11.516;2023-02-28T05:09:42;-3.10;99.90
3818;DHT22;1924;48.078;11.516;2023-02-28T05:12:09;-3.00;99.90
3818;DHT22;1924;48.078;11.516;2023-02-28T05:14:36;-2.90;99.90
3818;DHT22;1924;48.078;11.516;2023-02-28T05:17:03;-2.90;99.90
3818;DHT22;1924;48.078;11.516;2023-02-28T05:19:31;-2.80;99.90
3818;DHT22;1924;48.078;11.516;2023-02-28T05:21:57;-2.90;99.90
3818;DHT22;1924;48.078;11.516;2023-02-28T05:24:24;-3.00;99.90
3818;DHT22;1924;48.078;11.516;2023-02-28T05:26:52;-2.90;99.90
3818;DHT22;1924;48.078;11.516;2023-02-28T05:29:20;-2.80;99.90
3818;DHT22;1924;48.078;11.516;2023-02-28T05:31:46;-2.70;99.90
3818;DHT22;1924;48.078;11.516;2023-02-28T05:34:13;-2.70;99.90
3818;DHT22;1924;48.078;11.516;2023-02-28T05:36:42;-2.60;99.90
3818;DHT22;1924;48.078;11.516;2023-02-28T05:39:09;-2.50;99.90
3818;DHT22;1924;48.078;11.516;2023-02-28T05:41:41;-2.50;99.90
3818;DHT22;1924;48.078;11.516;2023-02-28T05:44:08;-2.40;99.90
3818;DHT22;1924;48.078;11.516;2023-02-28T05:46:34;-2.50;99.90
3818;DHT22;1924;48.078;11.516;2023-02-28T05:49:02;-2.50;99.90
3818;DHT22;1924;48.078;11.516;2023-02-28T05:51:28;-2.40;99.90
3818;DHT22;1924;48.078;11.516;2023-02-28T05:54:00;-2.60;99.90
3818;DHT22;1924;48.078;11.516;2023-02-28T05:56:27;-2.60;99.90
3818;DHT22;1924;48.078;11.516;2023-02-28T05:58:54;-2.60;99.90
3818;DHT22;1924;48.078;11.516;2023-02-28T06:01:24;-2.70;99.90
3818;DHT22;1924;48.078;11.516;2023-02-28T06:03:51;-2.70;99.90
3818;DHT22;1924;48.078;11.516;2023-02-28T06:06:18;-2.50;99.90
3818;DHT22;1924;48.078;11.516;2023-02-28T06:08:45;-2.30;99.90
3818;DHT22;1924;48.078;11.516;2023-02-28T06:11:13;-2.30;99.90
3818;DHT22;1924;48.078;11.516;2023-02-28T06:13:40;-2.20;99.90
3818;DHT22;1924;48.078;11.516;2023-02-28T06:16:08;-2.20;99.90
3818;DHT22;1924;48.078;11.516;2023-02-28T06:18:35;-2.30;99.90
3818;DHT22;1924;48.078;11.516;2023-02-28T06:21:02;-2.40;99.90
3818;DHT22;1924;48.078;11.516;2023-02-28T06:23:29;-2.40;99.90
3818;DHT22;1924;48.078;11.516;2023-02-28T06:25:56;-2.60;99.90
3818;DHT22;1924;48.078;11.516;2023-02-28T06:28:25;-2.60;99.90
3818;DHT22;1924;48.078;11.516;2023-02-28T06:30:52;-2.50;99.90
3818;DHT22;1924;48.078;11.516;2023-02-28T06:33:19;-2.40;99.90
3818;DHT22;1924;48.078;11.516;2023-02-28T06:35:47;-2.50;99.90
3818;DHT22;1924;48.078;11.516;2023-02-28T06:38:14;-2.60;99.90
3818;DHT22;1924;48.078;11.516;2023-02-28T06:40:40;-2.60;99.90
3818;DHT22;1924;48.078;11.516;2023-02-28T06:43:08;-2.50;99.90
3818;DHT22;1924;48.078;11.516;2023-02-28T06:45:36;-2.50;99.90
3818;DHT22;1924;48.078;11.516;2023-02-28T06:48:03;-2.40;99.90
3818;DHT22;1924;48.078;11.516;2023-02-28T06:50:29;-2.30;99.90
3818;DHT22;1924;48.078;11.516;2023-02-28T06:52:58;-2.60;99.90
3818;DHT22;1924;48.078;11.516;2023-02-28T06:55:24;-2.40;99.90
3818;DHT22;1924;48.078;11.516;2023-02-28T06:57:51;-2.60;99.90
3818;DHT22;1924;48.078;11.516;2023-02-28T07:00:18;-2.50;99.90
3818;DHT22;1924;48.078;11.516;2023-02-28T07:02:46;-2.40;99.90
3818;DHT22;1924;48.078;11.516;2023-02-28T07:05:13;-2.40;99.90
3818;DHT22;1924;48.078;11.516;2023-02-28T07:07:40;-2.50;99.90
3818;DHT22;1924;48.078;11.516;2023-02-28T07:10:10;-2.40;99.90
3818;DHT22;1924;48.078;11.516;2023-02-28T07:12:38;-2.20;99.90
3818;DHT22;1924;48.078;11.516;2023-02-28T07:15:05;-2.30;99.90
3818;DHT22;1924;48.078;11.516;2023-02-28T07:17:32;-2.50;99.90
3818;DHT22;1924;48.078;11.516;2023-02-28T07:20:00;-2.40;99.90
3818;DHT22;1924;48.078;11.516;2023-02-28T07:22:30;-2.60;99.90
3818;DHT22;1924;48.078;11.516;2023-02-28T07:24:56;-2.50;99.90
3818;DHT22;1924;48.078;11.516;2023-02-28T07:27:23;-2.60;99.90
3818;DHT22;1924;48.078;11.516;2023-02-28T07:29:51;-2.60;99.90
3818;DHT22;1924;48.078;11.516;2023-02-28T07:32:17;-2.40;99.90
3818;DHT22;1924;48.078;11.516;2023-02-28T07:34:44;-2.10;99.90
3818;DHT22;1924;48.078;11.516;2023-02-28T07:37:12;-2.30;99.90
3818;DHT22;1924;48.078;11.516;2023-02-28T07:39:40;-2.30;99.90
3818;DHT22;1924;48.078;11.516;2023-02-28T07:42:07;-2.30;99.90
3818;DHT22;1924;48.078;11.516;2023-02-28T07:44:36;-2.40;99.90
3818;DHT22;1924;48.078;11.516;2023-02-28T07:47:06;-2.30;99.90
3818;DHT22;1924;48.078;11.516;2023-02-28T07:49:33;-2.30;99.90
3818;DHT22;1924;48.078;11.516;2023-02-28T07:51:59;-2.10;99.90
3818;DHT22;1924;48.078;11.516;2023-02-28T07:54:27;-2.50;99.90
3818;DHT22;1924;48.078;11.516;2023-02-28T07:56:54;-2.40;99.90
3818;DHT22;1924;48.078;11.516;2023-02-28T07:59:21;-2.40;99.90
3818;DHT22;1924;48.078;11.516;2023-02-28T08:01:47;-2.40;99.90
3818;DHT22;1924;48.078;11.516;2023-02-28T08:04:15;-2.20;99.90
3818;DHT22;1924;48.078;11.516;2023-02-28T08:06:42;-2.30;99.90
3818;DHT22;1924;48.078;11.516;2023-02-28T08:09:09;-2.20;99.90
3818;DHT22;1924;48.078;11.516;2023-02-28T08:11:37;-2.20;99.90
3818;DHT22;1924;48.078;11.516;2023-02-28T08:14:04;-2.10;99.90
3818;DHT22;1924;48.078;11.516;2023-02-28T08:16:31;-2.00;99.90
3818;DHT22;1924;48.078;11.516;2023-02-28T08:18:58;-1.90;99.90
3818;DHT22;1924;48.078;11.516;2023-02-28T08:21:24;-1.80;99.90
3818;DHT22;1924;48.078;11.516;2023-02-28T08:23:51;-1.60;99.90
3818;DHT22;1924;48.078;11.516;2023-02-28T08:26:18;-1.40;99.90
3818;DHT22;1924;48.078;11.516;2023-02-28T08:28:46;-1.40;99.90
3818;DHT22;1924;48.078;11.516;2023-02-28T08:31:15;-1.50;99.90
3818;DHT22;1924;48.078;11.516;2023-02-28T08:33:43;-1.50;99.90
3818;DHT22;1924;48.078;11.516;2023-02-28T08:36:11;-1.80;99.90
3818;DHT22;1924;48.078;11.516;2023-02-28T08:38:37;-1.90;99.90
3818;DHT22;1924;48.078;11.516;2023-02-28T08:41:06;-2.00;99.90
3818;DHT22;1924;48.078;11.516;2023-02-28T08:43:33;-2.00;99.90
3818;DHT22;1924;48.078;11.516;2023-02-28T08:46:02;-1.80;99.90
3818;DHT22;1924;48.078;11.516;2023-02-28T08:48:30;-1.80;99.90
3818;DHT22;1924;48.078;11.516;2023-02-28T08:50:59;-1.90;99.90
3818;DHT22;1924;48.078;11.516;2023-02-28T08:53:27;-1.80;99.90
3818;DHT22;1924;48.078;11.516;2023-02-28T08:55:57;-1.80;99.90
3818;DHT22;1924;48.078;11.516;2023-02-28T08:58:24;-1.90;99.90
3818;DHT22;1924;48.078;11.516;2023-02-28T09:00:51;-2.00;99.90
3818;DHT22;1924;48.078;11.516;2023-02-28T09:03:21;-2.10;99.90
3818;DHT22;1924;48.078;11.516;2023-02-28T09:05:55;-2.00;99.90
3818;DHT22;1924;48.078;11.516;2023-02-28T09:08:23;-1.90;99.90
3818;DHT22;1924;48.078;11.516;2023-02-28T09:10:50;-2.10;99.90
3818;DHT22;1924;48.078;11.516;2023-02-28T09:13:17;-2.20;99.90
3818;DHT22;1924;48.078;11.516;2023-02-28T09:15:44;-2.20;99.90
3818;DHT22;1924;48.078;11.516;2023-02-28T09:18:11;-1.80;99.90
3818;DHT22;1924;48.078;11.516;2023-02-28T09:20:40;-1.50;99.90
3818;DHT22;1924;48.078;11.516;2023-02-28T09:23:07;-1.20;99.90
3818;DHT22;1924;48.078;11.516;2023-02-28T09:25:35;-1.20;99.90
3818;DHT22;1924;48.078;11.516;2023-02-28T09:28:02;-1.40;99.90
3818;DHT22;1924;48.078;11.516;2023-02-28T09:30:30;-1.30;99.90
3818;DHT22;1924;48.078;11.516;2023-02-28T09:32:56;-1.40;99.90
3818;DHT22;1924;48.078;11.516;2023-02-28T09:35:24;-1.40;99.90
3818;DHT22;1924;48.078;11.516;2023-02-28T09:37:53;-1.30;99.90
3818;DHT22;1924;48.078;11.516;2023-02-28T09:40:22;-1.50;99.90
3818;DHT22;1924;48.078;11.516;2023-02-28T09:42:53;-1.50;99.90
3818;DHT22;1924;48.078;11.516;2023-02-28T09:45:26;-1.50;99.90
3818;DHT22;1924;48.078;11.516;2023-02-28T09:47:56;-1.50;99.90
3818;DHT22;1924;48.078;11.516;2023-02-28T09:50:31;-1.40;99.90
3818;DHT22;1924;48.078;11.516;2023-02-28T09:53:03;-1.30;99.90
3818;DHT22;1924;48.078;11.516;2023-02-28T09:55:33;-1.20;99.90
3818;DHT22;1924;48.078;11.516;2023-02-28T09:58:04;-1.10;99.90
3818;DHT22;1924;48.078;11.516;2023-02-28T10:00:34;-1.20;99.90
3818;DHT22;1924;48.078;11.516;2023-02-28T10:03:20;-1.30;99.90
3818;DHT22;1924;48.078;11.516;2023-02-28T10:05:53;-1.30;99.90
3818;DHT22;1924;48.078;11.516;2023-02-28T10:08:25;-1.10;99.90
3818;DHT22;1924;48.078;11.516;2023-02-28T10:10:55;-0.90;99.90
3818;DHT22;1924;48.078;11.516;2023-02-28T10:13:26;-1.00;99.90
3818;DHT22;1924;48.078;11.516;2023-02-28T10:16:01;-1.00;99.90
3818;DHT22;1924;48.078;11.516;2023-02-28T10:18:35;-0.90;99.90
3818;DHT22;1924;48.078;11.516;2023-02-28T10:21:06;-1.20;99.90
3818;DHT22;1924;48.078;11.516;2023-02-28T10:23:37;-1.00;99.90
3818;DHT22;1924;48.078;11.516;2023-02-28T10:26:11;-0.90;99.90
3818;DHT22;1924;48.078;11.516;2023-02-28T10:28:39;-1.10;99.90
3818;DHT22;1924;48.078;11.516;2023-02-28T10:31:09;-1.10;99.90
3818;DHT22;1924;48.078;11.516;2023-02-28T10:33:38;-1.20;99.90
3818;DHT22;1924;48.078;11.516;2023-02-28T10:36:05;-1.20;99.90
3818;DHT22;1924;48.078;11.516;2023-02-28T10:38:34;-1.00;99.90
3818;DHT22;1924;48.078;11.516;2023-02-28T10:41:06;-0.90;99.90
3818;DHT22;1924;48.078;11.516;2023-02-28T10:43:34;-0.90;99.90
3818;DHT22;1924;48.078;11.516;2023-02-28T10:46:04;-0.80;99.90
3818;DHT22;1924;48.078;11.516;2023-02-28T10:48:37;-0.70;99.90
3818;DHT22;1924;48.078;11.516;2023-02-28T10:51:07;-0.80;99.90
3818;DHT22;1924;48.078;11.516;2023-02-28T10:53:38;-0.80;99.90
3818;DHT22;1924;48.078;11.516;2023-02-28T10:56:16;-0.80;99.90
3818;DHT22;1924;48.078;11.516;2023-02-28T10:58:53;-0.70;99.90
3818;DHT22;1924;48.078;11.516;2023-02-28T11:01:22;-0.70;99.90
3818;DHT22;1924;48.078;11.516;2023-02-28T11:03:50;-0.70;99.90
3818;DHT22;1924;48.078;11.516;2023-02-28T11:06:19;-0.80;99.90
3818;DHT22;1924;48.078;11.516;2023-02-28T11:08:49;-0.80;99.90
3818;DHT22;1924;48.078;11.516;2023-02-28T11:11:19;-0.70;99.90
3818;DHT22;1924;48.078;11.516;2023-02-28T11:13:47;-0.80;99.90
3818;DHT22;1924;48.078;11.516;2023-02-28T11:16:16;-0.60;99.90
3818;DHT22;1924;48.078;11.516;2023-02-28T11:18:47;-0.60;99.90
3818;DHT22;1924;48.078;11.516;2023-02-28T11:21:25;-0.50;99.90
3818;DHT22;1924;48.078;11.516;2023-02-28T11:23:58;-0.10;99.90
3818;DHT22;1924;48.078;11.516;2023-02-28T11:26:43;0.70;99.90
3818;DHT22;1924;48.078;11.516;2023-02-28T11:29:15;1.00;99.90
3818;DHT22;1924;48.078;11.516;2023-02-28T11:32:12;1.00;99.40
3818;DHT22;1924;48.078;11.516;2023-02-28T11:34:42;0.80;98.80
3818;DHT22;1924;48.078;11.516;2023-02-28T11:37:15;0.90;99.70
3818;DHT22;1924;48.078;11.516;2023-02-28T11:39:43;1.20;99.50
3818;DHT22;1924;48.078;11.516;2023-02-28T11:42:30;1.60;99.00
3818;DHT22;1924;48.078;11.516;2023-02-28T11:45:07;1.90;99.30
3818;DHT22;1924;48.078;11.516;2023-02-28T11:47:45;2.40;99.80
3818;DHT22;1924;48.078;11.516;2023-02-28T11:50:22;1.00;97.70
3818;DHT22;1924;48.078;11.516;2023-02-28T11:52:55;0.70;99.20
3818;DHT22;1924;48.078;11.516;2023-02-28T11:55:25;0.80;99.00
3818;DHT22;1924;48.078;11.516;2023-02-28T11:58:12;0.40;99.00
3818;DHT22;1924;48.078;11.516;2023-02-28T12:01:03;0.50;99.40
3818;DHT22;1924;48.078;11.516;2023-02-28T12:03:43;0.60;99.70
3818;DHT22;1924;48.078;11.516;2023-02-28T12:06:18;0.80;99.50
3818;DHT22;1924;48.078;11.516;2023-02-28T12:08:57;0.90;99.70
3818;DHT22;1924;48.078;11.516;2023-02-28T12:11:35;1.60;99.90
3818;DHT22;1924;48.078;11.516;2023-02-28T12:14:29;1.80;99.20
3818;DHT22;1924;48.078;11.516;2023-02-28T12:17:05;1.60;98.10
3818;DHT22;1924;48.078;11.516;2023-02-28T12:19:42;1.40;98.40
3818;DHT22;1924;48.078;11.516;2023-02-28T12:22:25;1.20;98.80
3818;DHT22;1924;48.078;11.516;2023-02-28T12:28:08;1.20;99.20
3818;DHT22;1924;48.078;11.516;2023-02-28T12:30:40;1.30;99.10
3818;DHT22;1924;48.078;11.516;2023-02-28T12:33:10;1.30;98.80
3818;DHT22;1924;48.078;11.516;2023-02-28T12:35:43;1.20;99.10
3818;DHT22;1924;48.078;11.516;2023-02-28T12:38:17;1.10;98.60
3818;DHT22;1924;48.078;11.516;2023-02-28T12:40:49;1.10;99.20
3818;DHT22;1924;48.078;11.516;2023-02-28T12:43:18;1.10;98.80
3818;DHT22;1924;48.078;11.516;2023-02-28T12:45:50;1.30;98.90
3818;DHT22;1924;48.078;11.516;2023-02-28T12:48:24;1.50;98.30
3818;DHT22;1924;48.078;11.516;2023-02-28T12:50:52;1.50;98.30
3818;DHT22;1924;48.078;11.516;2023-02-28T12:53:23;1.20;98.50
3818;DHT22;1924;48.078;11.516;2023-02-28T12:56:00;1.30;99.20
3818;DHT22;1924;48.078;11.516;2023-02-28T12:58:33;1.60;98.40
3818;DHT22;1924;48.078;11.516;2023-02-28T13:01:29;1.40;97.70
3818;DHT22;1924;48.078;11.516;2023-02-28T13:04:26;1.20;98.30
3818;DHT22;1924;48.078;11.516;2023-02-28T13:07:10;1.50;98.50
3818;DHT22;1924;48.078;11.516;2023-02-28T13:09:39;1.70;98.20
3818;DHT22;1924;48.078;11.516;2023-02-28T13:12:13;2.00;97.50
3818;DHT22;1924;48.078;11.516;2023-02-28T13:14:40;1.80;97.60
3818;DHT22;1924;48.078;11.516;2023-02-28T13:17:14;2.00;97.40
3818;DHT22;1924;48.078;11.516;2023-02-28T13:19:46;2.10;97.50
3818;DHT22;1924;48.078;11.516;2023-02-28T13:22:38;2.40;97.50
3818;DHT22;1924;48.078;11.516;2023-02-28T13:28:09;2.10;96.90
3818;DHT22;1924;48.078;11.516;2023-02-28T13:31:03;2.60;97.90
3818;DHT22;1924;48.078;11.516;2023-02-28T13:33:32;2.80;96.20
3818;DHT22;1924;48.078;11.516;2023-02-28T13:36:09;2.20;96.30
3818;DHT22;1924;48.078;11.516;2023-02-28T13:38:38;2.20;96.60
3818;DHT22;1924;48.078;11.516;2023-02-28T13:41:41;2.10;96.90
3818;DHT22;1924;48.078;11.516;2023-02-28T13:44:10;2.10;97.60
3818;DHT22;1924;48.078;11.516;2023-02-28T13:47:20;2.00;97.20
3818;DHT22;1924;48.078;11.516;2023-02-28T13:49:49;2.00;97.70
3818;DHT22;1924;48.078;11.516;2023-02-28T13:52:19;2.20;97.50
3818;DHT22;1924;48.078;11.516;2023-02-28T13:54:58;2.30;97.20
3818;DHT22;1924;48.078;11.516;2023-02-28T13:57:40;2.10;97.00
3818;DHT22;1924;48.078;11.516;2023-02-28T14:00:20;2.00;97.30
3818;DHT22;1924;48.078;11.516;2023-02-28T14:03:07;1.70;97.60
3818;DHT22;1924;48.078;11.516;2023-02-28T14:05:37;1.80;98.00
3818;DHT22;1924;48.078;11.516;2023-02-28T14:08:06;1.70;97.80
3818;DHT22;1924;48.078;11.516;2023-02-28T14:10:42;1.80;97.70
3818;DHT22;1924;48.078;11.516;2023-02-28T14:16:02;1.90;98.10
3818;DHT22;1924;48.078;11.516;2023-02-28T14:18:33;2.00;97.20
3818;DHT22;1924;48.078;11.516;2023-02-28T14:21:16;1.80;97.10
3818;DHT22;1924;48.078;11.516;2023-02-28T14:24:13;1.80;97.20
3818;DHT22;1924;48.078;11.516;2023-02-28T14:27:04;1.60;97.20
3818;DHT22;1924;48.078;11.516;2023-02-28T14:32:41;1.90;97.80
3818;DHT22;1924;48.078;11.516;2023-02-28T14:35:35;2.00;97.50
3818;DHT22;1924;48.078;11.516;2023-02-28T14:38:14;2.00;97.80
3818;DHT22;1924;48.078;11.516;2023-02-28T14:40:43;2.00;97.70
3818;DHT22;1924;48.078;11.516;2023-02-28T14:43:19;2.20;98.10
3818;DHT22;1924;48.078;11.516;2023-02-28T14:45:50;2.20;97.30
3818;DHT22;1924;48.078;11.516;2023-02-28T14:48:18;2.30;97.30
3818;DHT22;1924;48.078;11.516;2023-02-28T14:50:52;2.20;97.00
3818;DHT22;1924;48.078;11.516;2023-02-28T14:53:21;2.20;97.30
3818;DHT22;1924;48.078;11.516;2023-02-28T14:55:48;2.00;97.30
3818;DHT22;1924;48.078;11.516;2023-02-28T14:58:23;2.00;97.50
3818;DHT22;1924;48.078;11.516;2023-02-28T15:00:53;2.00;97.50
3818;DHT22;1924;48.078;11.516;2023-02-28T15:03:21;2.20;97.70
3818;DHT22;1924;48.078;11.516;2023-02-28T15:05:54;2.10;97.10
3818;DHT22;1924;48.078;11.516;2023-02-28T15:08:22;1.90;96.90
3818;DHT22;1924;48.078;11.516;2023-02-28T15:10:55;1.90;97.20
3818;DHT22;1924;48.078;11.516;2023-02-28T15:13:23;1.90;97.00
3818;DHT22;1924;48.078;11.516;2023-02-28T15:15:55;1.90;97.00
3818;DHT22;1924;48.078;11.516;2023-02-28T15:18:27;2.00;97.00
3818;DHT22;1924;48.078;11.516;2023-02-28T15:20:58;2.00;96.90
3818;DHT22;1924;48.078;11.516;2023-02-28T15:23:25;2.10;97.00
3818;DHT22;1924;48.078;11.516;2023-02-28T15:25:53;2.10;96.90
3818;DHT22;1924;48.078;11.516;2023-02-28T15:28:22;2.00;97.10
3818;DHT22;1924;48.078;11.516;2023-02-28T15:30:55;2.10;97.20
3818;DHT22;1924;48.078;11.516;2023-02-28T15:33:24;2.00;97.30
3818;DHT22;1924;48.078;11.516;2023-02-28T15:36:05;2.10;97.20
3818;DHT22;1924;48.078;11.516;2023-02-28T15:38:34;2.00;97.50
3818;DHT22;1924;48.078;11.516;2023-02-28T15:41:01;2.00;97.50
3818;DHT22;1924;48.078;11.516;2023-02-28T15:43:34;2.10;97.70
3818;DHT22;1924;48.078;11.516;2023-02-28T15:46:02;2.10;97.50
3818;DHT22;1924;48.078;11.516;2023-02-28T15:48:31;2.20;97.40
3818;DHT22;1924;48.078;11.516;2023-02-28T15:51:03;2.10;97.30
3818;DHT22;1924;48.078;11.516;2023-02-28T15:53:36;2.10;97.50
3818;DHT22;1924;48.078;11.516;2023-02-28T15:56:05;2.10;97.50
3818;DHT22;1924;48.078;11.516;2023-02-28T15:58:35;2.00;97.30
3818;DHT22;1924;48.078;11.516;2023-02-28T16:01:17;2.00;97.60
3818;DHT22;1924;48.078;11.516;2023-02-28T16:03:47;2.00;97.70
3818;DHT22;1924;48.078;11.516;2023-02-28T16:06:39;2.00;98.10
3818;DHT22;1924;48.078;11.516;2023-02-28T16:09:11;2.00;97.60
3818;DHT22;1924;48.078;11.516;2023-02-28T16:11:44;2.00;97.70
3818;DHT22;1924;48.078;11.516;2023-02-28T16:14:15;1.90;97.50
3818;DHT22;1924;48.078;11.516;2023-02-28T16:16:43;2.00;97.90
3818;DHT22;1924;48.078;11.516;2023-02-28T16:19:10;2.00;97.70
3818;DHT22;1924;48.078;11.516;2023-02-28T16:21:38;1.80;97.70
3818;DHT22;1924;48.078;11.516;2023-02-28T16:24:08;1.80;97.80
3818;DHT22;1924;48.078;11.516;2023-02-28T16:26:36;1.90;98.10
3818;DHT22;1924;48.078;11.516;2023-02-28T16:29:06;1.90;98.50
3818;DHT22;1924;48.078;11.516;2023-02-28T16:31:36;2.00;98.00
3818;DHT22;1924;48.078;11.516;2023-02-28T16:34:04;2.00;98.30
3818;DHT22;1924;48.078;11.516;2023-02-28T16:36:31;1.90;98.10
3818;DHT22;1924;48.078;11.516;2023-02-28T16:38:58;1.90;98.20
3818;DHT22;1924;48.078;11.516;2023-02-28T16:41:27;1.90;98.10
3818;DHT22;1924;48.078;11.516;2023-02-28T16:43:55;1.80;98.50
3818;DHT22;1924;48.078;11.516;2023-02-28T16:46:27;1.80;98.70
3818;DHT22;1924;48.078;11.516;2023-02-28T16:48:54;1.80;98.40
3818;DHT22;1924;48.078;11.516;2023-02-28T16:51:21;1.80;99.20
3818;DHT22;1924;48.078;11.516;2023-02-28T16:53:47;1.80;99.10
3818;DHT22;1924;48.078;11.516;2023-02-28T16:56:17;1.70;99.40
3818;DHT22;1924;48.078;11.516;2023-02-28T16:58:46;1.70;99.20
3818;DHT22;1924;48.078;11.516;2023-02-28T17:01:13;1.60;99.50
3818;DHT22;1924;48.078;11.516;2023-02-28T17:03:40;1.60;99.90
3818;DHT22;1924;48.078;11.516;2023-02-28T17:06:17;1.60;99.90
3818;DHT22;1924;48.078;11.516;2023-02-28T17:08:44;1.50;99.90
3818;DHT22;1924;48.078;11.516;2023-02-28T17:11:11;1.50;99.90
3818;DHT22;1924;48.078;11.516;2023-02-28T17:13:38;1.40;99.90
3818;DHT22;1924;48.078;11.516;2023-02-28T17:16:12;1.40;99.90
3818;DHT22;1924;48.078;11.516;2023-02-28T17:18:40;1.40;99.90
3818;DHT22;1924;48.078;11.516;2023-02-28T17:21:13;1.40;99.90
3818;DHT22;1924;48.078;11.516;2023-02-28T17:23:39;1.30;99.90
3818;DHT22;1924;48.078;11.516;2023-02-28T17:26:06;1.40;99.90
3818;DHT22;1924;48.078;11.516;2023-02-28T17:28:33;1.30;99.90
3818;DHT22;1924;48.078;11.516;2023-02-28T17:30:59;1.30;99.90
3818;DHT22;1924;48.078;11.516;2023-02-28T17:33:27;1.30;99.90
3818;DHT22;1924;48.078;11.516;2023-02-28T17:35:54;1.20;99.90
3818;DHT22;1924;48.078;11.516;2023-02-28T17:38:21;1.20;99.90
3818;DHT22;1924;48.078;11.516;2023-02-28T17:40:48;1.20;99.90
3818;DHT22;1924;48.078;11.516;2023-02-28T17:43:15;1.10;99.90
3818;DHT22;1924;48.078;11.516;2023-02-28T17:45:42;1.10;99.90
3818;DHT22;1924;48.078;11.516;2023-02-28T17:48:09;1.10;99.90
3818;DHT22;1924;48.078;11.516;2023-02-28T17:50:38;1.00;99.90
3818;DHT22;1924;48.078;11.516;2023-02-28T17:53:05;1.00;99.90
3818;DHT22;1924;48.078;11.516;2023-02-28T17:55:32;1.00;99.90
3818;DHT22;1924;48.078;11.516;2023-02-28T17:57:59;1.00;99.90
3818;DHT22;1924;48.078;11.516;2023-02-28T18:00:26;0.90;99.90
3818;DHT22;1924;48.078;11.516;2023-02-28T18:02:53;1.00;99.90
3818;DHT22;1924;48.078;11.516;2023-02-28T18:05:20;1.10;99.90
3818;DHT22;1924;48.078;11.516;2023-02-28T18:07:48;1.10;99.90
3818;DHT22;1924;48.078;11.516;2023-02-28T18:10:17;0.90;99.90
3818;DHT22;1924;48.078;11.516;2023-02-28T18:12:45;0.90;99.90
3818;DHT22;1924;48.078;11.516;2023-02-28T18:15:12;1.00;99.90
3818;DHT22;1924;48.078;11.516;2023-02-28T18:17:39;1.10;99.90
3818;DHT22;1924;48.078;11.516;2023-02-28T18:20:07;1.10;99.90
3818;DHT22;1924;48.078;11.516;2023-02-28T18:22:35;1.20;99.90
3818;DHT22;1924;48.078;11.516;2023-02-28T18:25:04;1.20;99.90
3818;DHT22;1924;48.078;11.516;2023-02-28T18:27:32;1.20;99.90